sensor_id;sensor_type;location;lat;lon;timestamp;pressure;altitude;pressure_sealevel;temperature;humidity
74975;BME280;68459;50.836;19.138;2023-09-08T00:01:14;99471.84;;;15.17;69.15
74975;BME280;68459;50.836;19.138;2023-09-08T00:04:18;99470.19;;;15.16;69.09
74975;BME280;68459;50.836;19.138;2023-09-08T00:07:23;99471.47;;;15.14;68.96
74975;BME280;68459;50.836;19.138;2023-09-08T00:10:27;99468.16;;;15.12;69.23
74975;BME280;68459;50.836;19.138;2023-09-08T00:13:32;99460.22;;;15.10;69.64
74975;BME280;68459;50.836;19.138;2023-09-08T00:16:36;99464.63;;;15.11;69.53
74975;BME280;68459;50.836;19.138;2023-09-08T00:19:41;99457.75;;;15.09;69.64
74975;BME280;68459;50.836;19.138;2023-09-08T00:22:45;99463.78;;;15.11;69.75
74975;BME280;68459;50.836;19.138;2023-09-08T00:25:49;99456.69;;;15.10;69.53
74975;BME280;68459;50.836;19.138;2023-09-08T00:28:54;99458.34;;;15.11;69.78
74975;BME280;68459;50.836;19.138;2023-09-08T00:31:58;99465.44;;;15.12;70.07
74975;BME280;68459;50.836;19.138;2023-09-08T00:35:05;99461.28;;;15.09;69.73
74975;BME280;68459;50.836;19.138;2023-09-08T00:38:10;99460.47;;;15.09;70.03
74975;BME280;68459;50.836;19.138;2023-09-08T00:41:14;99456.09;;;15.08;69.93
74975;BME280;68459;50.836;19.138;2023-09-08T00:44:19;99455.38;;;15.01;69.95
74975;BME280;68459;50.836;19.138;2023-09-08T00:47:23;99448.75;;;14.96;70.18
74975;BME280;68459;50.836;19.138;2023-09-08T00:50:27;99464.44;;;14.94;70.40
74975;BME280;68459;50.836;19.138;2023-09-08T00:53:31;99461.13;;;14.92;70.46
74975;BME280;68459;50.836;19.138;2023-09-08T00:56:37;99461.13;;;14.92;70.60
74975;BME280;68459;50.836;19.138;2023-09-08T00:59:44;99456.75;;;14.91;70.89
74975;BME280;68459;50.836;19.138;2023-09-08T01:02:48;99457.00;;;14.90;70.66
74975;BME280;68459;50.836;19.138;2023-09-08T01:05:52;99462.66;;;14.88;70.69
74975;BME280;68459;50.836;19.138;2023-09-08T01:08:56;99457.69;;;14.85;70.62
74975;BME280;68459;50.836;19.138;2023-09-08T01:12:02;99451.88;;;14.82;71.39
74975;BME280;68459;50.836;19.138;2023-09-08T01:15:09;99448.56;;;14.80;71.42
74975;BME280;68459;50.836;19.138;2023-09-08T01:18:14;99448.81;;;14.78;71.21
74975;BME280;68459;50.836;19.138;2023-09-08T01:21:58;99445.28;;;14.78;72.75
74975;BME280;68459;50.836;19.138;2023-09-08T01:25:25;99445.97;;;14.73;71.37
74975;BME280;68459;50.836;19.138;2023-09-08T01:28:30;99451.72;;;14.65;71.02
74975;BME280;68459;50.836;19.138;2023-09-08T01:31:35;99441.56;;;14.60;71.01
74975;BME280;68459;50.836;19.138;2023-09-08T01:34:41;99444.94;;;14.56;71.34
74975;BME280;68459;50.836;19.138;2023-09-08T01:37:45;99447.06;;;14.54;71.34
74975;BME280;68459;50.836;19.138;2023-09-08T01:40:52;99449.19;;;14.52;71.73
74975;BME280;68459;50.836;19.138;2023-09-08T01:43:56;99449.06;;;14.47;71.65
74975;BME280;68459;50.836;19.138;2023-09-08T01:47:00;99444.69;;;14.46;71.65
74975;BME280;68459;50.836;19.138;2023-09-08T01:50:04;99448.44;;;14.45;71.86
74975;BME280;68459;50.836;19.138;2023-09-08T01:53:08;99446.19;;;14.42;71.99
74975;BME280;68459;50.836;19.138;2023-09-08T01:56:13;99446.59;;;14.39;72.18
74975;BME280;68459;50.836;19.138;2023-09-08T01:59:18;99452.75;;;14.34;72.04
74975;BME280;68459;50.836;19.138;2023-09-08T02:02:22;99442.09;;;14.33;71.95
74975;BME280;68459;50.836;19.138;2023-09-08T02:05:25;99442.34;;;14.31;72.10
74975;BME280;68459;50.836;19.138;2023-09-08T02:08:29;99441.13;;;14.27;72.12
74975;BME280;68459;50.836;19.138;2023-09-08T02:11:35;99443.22;;;14.25;72.47
74975;BME280;68459;50.836;19.138;2023-09-08T02:14:39;99437.47;;;14.21;72.28
74975;BME280;68459;50.836;19.138;2023-09-08T02:17:43;99441.66;;;14.17;72.55
74975;BME280;68459;50.836;19.138;2023-09-08T02:20:47;99438.34;;;14.15;72.44
74975;BME280;68459;50.836;19.138;2023-09-08T02:23:51;99433.97;;;14.14;72.57
74975;BME280;68459;50.836;19.138;2023-09-08T02:26:56;99436.25;;;14.17;72.56
74975;BME280;68459;50.836;19.138;2023-09-08T02:30:00;99437.91;;;14.18;72.35
74975;BME280;68459;50.836;19.138;2023-09-08T02:33:05;99435.19;;;14.18;72.37
74975;BME280;68459;50.836;19.138;2023-09-08T02:36:10;99433.75;;;14.16;72.54
74975;BME280;68459;50.836;19.138;2023-09-08T02:39:15;99428.78;;;14.13;72.57
74975;BME280;68459;50.836;19.138;2023-09-08T02:42:20;99423.34;;;14.13;72.88
74975;BME280;68459;50.836;19.138;2023-09-08T02:45:24;99423.34;;;14.13;72.59
74975;BME280;68459;50.836;19.138;2023-09-08T02:48:28;99423.13;;;14.14;72.76
74975;BME280;68459;50.836;19.138;2023-09-08T02:51:32;99425.38;;;14.17;72.86
74975;BME280;68459;50.836;19.138;2023-09-08T02:54:36;99423.28;;;14.19;73.02
74975;BME280;68459;50.836;19.138;2023-09-08T02:57:41;99418.47;;;14.21;73.30
74975;BME280;68459;50.836;19.138;2023-09-08T03:00:46;99422.22;;;14.20;72.93
74975;BME280;68459;50.836;19.138;2023-09-08T03:03:50;99421.63;;;14.18;72.95
74975;BME280;68459;50.836;19.138;2023-09-08T03:06:55;99415.81;;;14.15;73.08
74975;BME280;68459;50.836;19.138;2023-09-08T03:09:59;99420.41;;;14.14;73.13
74975;BME280;68459;50.836;19.138;2023-09-08T03:13:04;99421.25;;;14.15;73.33
74975;BME280;68459;50.836;19.138;2023-09-08T03:16:08;99407.44;;;14.16;73.20
74975;BME280;68459;50.836;19.138;2023-09-08T03:19:13;99410.78;;;14.18;72.91
74975;BME280;68459;50.836;19.138;2023-09-08T03:22:16;99409.56;;;14.14;73.12
74975;BME280;68459;50.836;19.138;2023-09-08T03:25:21;99405.66;;;14.10;73.26
74975;BME280;68459;50.836;19.138;2023-09-08T03:28:26;99402.13;;;14.10;73.35
74975;BME280;68459;50.836;19.138;2023-09-08T03:31:30;99401.28;;;14.09;73.30
74975;BME280;68459;50.836;19.138;2023-09-08T03:34:34;99408.84;;;14.07;73.42
74975;BME280;68459;50.836;19.138;2023-09-08T03:37:43;99410.34;;;14.03;73.47
74975;BME280;68459;50.836;19.138;2023-09-08T03:40:47;99407.84;;;14.02;73.49
74975;BME280;68459;50.836;19.138;2023-09-08T03:43:53;99400.53;;;14.02;73.72
74975;BME280;68459;50.836;19.138;2023-09-08T03:46:56;99410.94;;;14.05;73.52
74975;BME280;68459;50.836;19.138;2023-09-08T03:50:05;99403.41;;;14.07;73.67
74975;BME280;68459;50.836;19.138;2023-09-08T03:53:10;99396.31;;;14.06;73.58
74975;BME280;68459;50.836;19.138;2023-09-08T03:56:14;99400.91;;;14.06;73.71
74975;BME280;68459;50.836;19.138;2023-09-08T03:59:20;99399.03;;;14.06;73.93
74975;BME280;68459;50.836;19.138;2023-09-08T04:02:24;99401.28;;;14.09;73.68
74975;BME280;68459;50.836;19.138;2023-09-08T04:05:29;99408.97;;;14.12;73.62
74975;BME280;68459;50.836;19.138;2023-09-08T04:08:33;99403.09;;;14.15;73.47
74975;BME280;68459;50.836;19.138;2023-09-08T04:11:36;99405.94;;;14.20;73.88
74975;BME280;68459;50.836;19.138;2023-09-08T04:14:42;99402.78;;;14.23;73.66
74975;BME280;68459;50.836;19.138;2023-09-08T04:17:46;99405.84;;;14.27;73.71
74975;BME280;68459;50.836;19.138;2023-09-08T04:20:50;99410.22;;;14.28;73.49
74975;BME280;68459;50.836;19.138;2023-09-08T04:23:54;99404.56;;;14.30;73.73
74975;BME280;68459;50.836;19.138;2023-09-08T04:26:57;99404.13;;;14.33;73.48
74975;BME280;68459;50.836;19.138;2023-09-08T04:30:03;99407.66;;;14.33;73.81
74975;BME280;68459;50.836;19.138;2023-09-08T04:33:08;99399.28;;;14.35;73.56
74975;BME280;68459;50.836;19.138;2023-09-08T04:36:12;99403.44;;;14.37;73.55
74975;BME280;68459;50.836;19.138;2023-09-08T04:39:16;99402.34;;;14.38;73.58
74975;BME280;68459;50.836;19.138;2023-09-08T04:42:19;99401.28;;;14.39;73.64
74975;BME280;68459;50.836;19.138;2023-09-08T04:45:25;99396.28;;;14.43;73.93
74975;BME280;68459;50.836;19.138;2023-09-08T04:48:30;99402.91;;;14.47;73.34
74975;BME280;68459;50.836;19.138;2023-09-08T04:51:34;99408.94;;;14.49;73.48
74975;BME280;68459;50.836;19.138;2023-09-08T04:54:39;99402.44;;;14.50;73.37
74975;BME280;68459;50.836;19.138;2023-09-08T04:57:43;99404.13;;;14.51;73.45
74975;BME280;68459;50.836;19.138;2023-09-08T05:00:49;99408.22;;;14.53;73.96
74975;BME280;68459;50.836;19.138;2023-09-08T05:03:54;99405.66;;;14.58;73.58
74975;BME280;68459;50.836;19.138;2023-09-08T05:06:58;99398.00;;;14.67;73.27
74975;BME280;68459;50.836;19.138;2023-09-08T05:10:03;99406.28;;;14.72;73.30
74975;BME280;68459;50.836;19.138;2023-09-08T05:13:09;99396.84;;;14.75;73.52
74975;BME280;68459;50.836;19.138;2023-09-08T05:16:32;99410.31;;;14.81;73.55
74975;BME280;68459;50.836;19.138;2023-09-08T05:19:52;99412.59;;;14.84;73.25
74975;BME280;68459;50.836;19.138;2023-09-08T05:22:56;99414.00;;;14.87;73.09
74975;BME280;68459;50.836;19.138;2023-09-08T05:26:00;99402.69;;;14.90;73.12
74975;BME280;68459;50.836;19.138;2023-09-08T05:29:04;99408.81;;;14.97;73.06
74975;BME280;68459;50.836;19.138;2023-09-08T05:32:10;99417.44;;;15.06;73.09
74975;BME280;68459;50.836;19.138;2023-09-08T05:35:14;99408.75;;;15.15;73.00
74975;BME280;68459;50.836;19.138;2023-09-08T05:38:18;99417.13;;;15.25;72.59
74975;BME280;68459;50.836;19.138;2023-09-08T05:41:23;99411.34;;;15.33;72.66
74975;BME280;68459;50.836;19.138;2023-09-08T05:44:26;99415.63;;;15.41;72.65
74975;BME280;68459;50.836;19.138;2023-09-08T05:47:32;99405.44;;;15.48;72.68
74975;BME280;68459;50.836;19.138;2023-09-08T05:50:38;99408.28;;;15.53;72.33
74975;BME280;68459;50.836;19.138;2023-09-08T05:53:42;99409.00;;;15.60;72.56
74975;BME280;68459;50.836;19.138;2023-09-08T05:56:46;99415.63;;;15.64;72.41
74975;BME280;68459;50.836;19.138;2023-09-08T05:59:50;99406.25;;;15.72;72.13
74975;BME280;68459;50.836;19.138;2023-09-08T06:02:56;99409.00;;;15.84;72.73
74975;BME280;68459;50.836;19.138;2023-09-08T06:06:01;99407.06;;;15.96;72.04
74975;BME280;68459;50.836;19.138;2023-09-08T06:09:05;99406.44;;;16.06;71.93
74975;BME280;68459;50.836;19.138;2023-09-08T06:12:12;99405.81;;;16.15;72.27
74975;BME280;68459;50.836;19.138;2023-09-08T06:15:15;99407.13;;;16.24;71.47
74975;BME280;68459;50.836;19.138;2023-09-08T06:18:21;99410.88;;;16.35;71.70
74975;BME280;68459;50.836;19.138;2023-09-08T06:21:25;99410.22;;;16.45;71.45
74975;BME280;68459;50.836;19.138;2023-09-08T06:24:29;99411.00;;;16.57;71.58
74975;BME280;68459;50.836;19.138;2023-09-08T06:27:33;99401.38;;;16.66;71.47
74975;BME280;68459;50.836;19.138;2023-09-08T06:30:37;99404.06;;;16.78;71.22
74975;BME280;68459;50.836;19.138;2023-09-08T06:33:45;99409.44;;;16.89;71.31
74975;BME280;68459;50.836;19.138;2023-09-08T06:36:50;99416.72;;;17.00;70.85
74975;BME280;68459;50.836;19.138;2023-09-08T06:39:54;99417.47;;;17.13;70.30
74975;BME280;68459;50.836;19.138;2023-09-08T06:42:59;99414.66;;;17.24;70.36
74975;BME280;68459;50.836;19.138;2023-09-08T06:46:18;99409.09;;;17.36;70.25
74975;BME280;68459;50.836;19.138;2023-09-08T06:49:24;99403.56;;;17.48;70.01
74975;BME280;68459;50.836;19.138;2023-09-08T06:52:28;99411.63;;;17.59;70.19
74975;BME280;68459;50.836;19.138;2023-09-08T06:55:33;99413.50;;;17.70;69.42
74975;BME280;68459;50.836;19.138;2023-09-08T06:58:37;99419.09;;;17.80;69.53
74975;BME280;68459;50.836;19.138;2023-09-08T07:01:41;99413.25;;;17.94;69.37
74975;BME280;68459;50.836;19.138;2023-09-08T07:04:46;99409.31;;;18.06;69.32
74975;BME280;68459;50.836;19.138;2023-09-08T07:07:51;99407.88;;;18.21;69.27
74975;BME280;68459;50.836;19.138;2023-09-08T07:10:55;99409.13;;;18.35;68.89
74975;BME280;68459;50.836;19.138;2023-09-08T07:13:59;99411.75;;;18.51;68.66
74975;BME280;68459;50.836;19.138;2023-09-08T07:17:03;99407.56;;;18.66;68.69
74975;BME280;68459;50.836;19.138;2023-09-08T07:20:09;99408.22;;;18.78;68.74
74975;BME280;68459;50.836;19.138;2023-09-08T07:23:14;99398.53;;;18.92;68.30
74975;BME280;68459;50.836;19.138;2023-09-08T07:26:20;99410.69;;;19.06;68.25
74975;BME280;68459;50.836;19.138;2023-09-08T07:29:23;99408.06;;;19.16;68.10
74975;BME280;68459;50.836;19.138;2023-09-08T07:32:28;99408.69;;;19.29;67.88
74975;BME280;68459;50.836;19.138;2023-09-08T07:35:36;99408.25;;;19.42;67.98
74975;BME280;68459;50.836;19.138;2023-09-08T07:38:41;99406.16;;;19.54;67.66
74975;BME280;68459;50.836;19.138;2023-09-08T07:41:44;99409.53;;;19.66;67.48
74975;BME280;68459;50.836;19.138;2023-09-08T07:44:49;99405.75;;;19.77;67.24
74975;BME280;68459;50.836;19.138;2023-09-08T07:47:53;99410.47;;;19.87;67.07
74975;BME280;68459;50.836;19.138;2023-09-08T07:50:59;99407.50;;;19.99;66.92
74975;BME280;68459;50.836;19.138;2023-09-08T07:54:03;99416.31;;;20.11;66.67
74975;BME280;68459;50.836;19.138;2023-09-08T07:57:08;99403.78;;;20.20;66.50
74975;BME280;68459;50.836;19.138;2023-09-08T08:00:13;99403.28;;;20.33;66.18
74975;BME280;68459;50.836;19.138;2023-09-08T08:03:17;99404.97;;;20.44;66.08
74975;BME280;68459;50.836;19.138;2023-09-08T08:06:22;99392.94;;;20.55;65.76
74975;BME280;68459;50.836;19.138;2023-09-08T08:09:26;99390.22;;;20.66;65.56
74975;BME280;68459;50.836;19.138;2023-09-08T08:12:30;99394.09;;;20.75;65.34
74975;BME280;68459;50.836;19.138;2023-09-08T08:15:35;99391.63;;;20.83;64.95
74975;BME280;68459;50.836;19.138;2023-09-08T08:18:39;99387.78;;;20.94;64.90
74975;BME280;68459;50.836;19.138;2023-09-08T08:21:45;99393.56;;;21.08;64.74
74975;BME280;68459;50.836;19.138;2023-09-08T08:24:49;99391.94;;;21.22;64.21
74975;BME280;68459;50.836;19.138;2023-09-08T08:27:52;99399.63;;;21.41;63.52
74975;BME280;68459;50.836;19.138;2023-09-08T08:30:56;99399.88;;;21.54;62.90
74975;BME280;68459;50.836;19.138;2023-09-08T08:34:00;99394.38;;;21.64;62.59
74975;BME280;68459;50.836;19.138;2023-09-08T08:37:05;99396.00;;;21.70;62.21
74975;BME280;68459;50.836;19.138;2023-09-08T08:40:10;99397.34;;;21.78;61.77
74975;BME280;68459;50.836;19.138;2023-09-08T08:43:14;99402.28;;;21.86;61.65
74975;BME280;68459;50.836;19.138;2023-09-08T08:46:20;99397.88;;;21.95;61.31
74975;BME280;68459;50.836;19.138;2023-09-08T08:49:25;99394.81;;;22.07;60.79
74975;BME280;68459;50.836;19.138;2023-09-08T08:52:32;99397.81;;;22.16;60.00
74975;BME280;68459;50.836;19.138;2023-09-08T08:55:36;99398.34;;;22.23;60.46
74975;BME280;68459;50.836;19.138;2023-09-08T08:58:41;99390.31;;;22.31;60.03
74975;BME280;68459;50.836;19.138;2023-09-08T09:01:45;99393.28;;;22.40;59.83
74975;BME280;68459;50.836;19.138;2023-09-08T09:04:50;99388.31;;;22.47;59.61
74975;BME280;68459;50.836;19.138;2023-09-08T09:07:57;99391.25;;;22.61;59.37
74975;BME280;68459;50.836;19.138;2023-09-08T09:11:05;99382.38;;;22.74;58.73
74975;BME280;68459;50.836;19.138;2023-09-08T09:14:09;99391.94;;;22.87;58.21
74975;BME280;68459;50.836;19.138;2023-09-08T09:17:13;99396.81;;;23.00;57.68
74975;BME280;68459;50.836;19.138;2023-09-08T09:20:18;99392.31;;;23.09;57.45
74975;BME280;68459;50.836;19.138;2023-09-08T09:23:28;99382.31;;;23.18;57.49
74975;BME280;68459;50.836;19.138;2023-09-08T09:26:33;99390.22;;;23.30;57.32
74975;BME280;68459;50.836;19.138;2023-09-08T09:29:44;99382.16;;;23.38;56.91
74975;BME280;68459;50.836;19.138;2023-09-08T09:32:58;99384.81;;;23.49;56.95
74975;BME280;68459;50.836;19.138;2023-09-08T09:36:03;99389.66;;;23.62;56.46
74975;BME280;68459;50.836;19.138;2023-09-08T09:39:09;99380.25;;;23.68;56.19
74975;BME280;68459;50.836;19.138;2023-09-08T09:42:13;99373.78;;;23.77;55.91
74975;BME280;68459;50.836;19.138;2023-09-08T09:45:18;99379.19;;;23.88;55.38
74975;BME280;68459;50.836;19.138;2023-09-08T09:48:23;99375.56;;;23.92;54.82
74975;BME280;68459;50.836;19.138;2023-09-08T09:51:26;99376.00;;;23.99;54.85
74975;BME280;68459;50.836;19.138;2023-09-08T09:54:32;99373.44;;;24.08;54.62
74975;BME280;68459;50.836;19.138;2023-09-08T09:57:36;99369.19;;;24.15;54.48
74975;BME280;68459;50.836;19.138;2023-09-08T10:00:41;99361.94;;;24.25;54.27
74975;BME280;68459;50.836;19.138;2023-09-08T10:03:52;99368.38;;;24.39;54.51
74975;BME280;68459;50.836;19.138;2023-09-08T10:06:57;99373.22;;;24.47;53.71
74975;BME280;68459;50.836;19.138;2023-09-08T10:10:03;99365.97;;;24.51;53.64
74975;BME280;68459;50.836;19.138;2023-09-08T10:13:10;99364.50;;;24.59;53.42
74975;BME280;68459;50.836;19.138;2023-09-08T10:16:16;99364.66;;;24.67;52.98
74975;BME280;68459;50.836;19.138;2023-09-08T10:19:23;99359.28;;;24.76;52.55
74975;BME280;68459;50.836;19.138;2023-09-08T10:22:30;99366.59;;;24.85;52.32
74975;BME280;68459;50.836;19.138;2023-09-08T10:25:41;99357.34;;;24.95;51.81
74975;BME280;68459;50.836;19.138;2023-09-08T10:28:47;99356.56;;;25.08;52.35
74975;BME280;68459;50.836;19.138;2023-09-08T10:31:53;99351.69;;;25.19;52.06
74975;BME280;68459;50.836;19.138;2023-09-08T10:35:00;99349.38;;;25.26;51.69
74975;BME280;68459;50.836;19.138;2023-09-08T10:38:24;99343.06;;;25.39;51.65
74975;BME280;68459;50.836;19.138;2023-09-08T10:41:30;99338.97;;;25.50;52.01
74975;BME280;68459;50.836;19.138;2023-09-08T10:44:34;99343.72;;;25.64;51.49
74975;BME280;68459;50.836;19.138;2023-09-08T10:47:54;99332.47;;;25.74;51.50
74975;BME280;68459;50.836;19.138;2023-09-08T10:51:05;99340.25;;;25.85;51.65
74975;BME280;68459;50.836;19.138;2023-09-08T10:54:10;99339.94;;;26.01;51.12
74975;BME280;68459;50.836;19.138;2023-09-08T10:57:16;99332.75;;;26.13;50.22
74975;BME280;68459;50.836;19.138;2023-09-08T11:00:21;99337.56;;;26.21;50.87
74975;BME280;68459;50.836;19.138;2023-09-08T11:03:27;99330.19;;;26.31;49.99
74975;BME280;68459;50.836;19.138;2023-09-08T11:06:32;99325.69;;;26.35;49.89
74975;BME280;68459;50.836;19.138;2023-09-08T11:09:36;99324.31;;;26.46;49.55
74975;BME280;68459;50.836;19.138;2023-09-08T11:12:41;99333.91;;;26.62;48.94
74975;BME280;68459;50.836;19.138;2023-09-08T11:15:44;99322.09;;;26.70;49.08
74975;BME280;68459;50.836;19.138;2023-09-08T11:18:50;99327.47;;;26.89;48.65
74975;BME280;68459;50.836;19.138;2023-09-08T11:21:55;99317.84;;;27.09;48.57
74975;BME280;68459;50.836;19.138;2023-09-08T11:25:00;99323.69;;;27.29;48.09
74975;BME280;68459;50.836;19.138;2023-09-08T11:28:08;99317.06;;;27.48;47.53
74975;BME280;68459;50.836;19.138;2023-09-08T11:31:12;99322.22;;;27.63;46.98
74975;BME280;68459;50.836;19.138;2023-09-08T11:34:16;99312.16;;;27.76;47.09
74975;BME280;68459;50.836;19.138;2023-09-08T11:37:20;99318.09;;;27.91;46.49
74975;BME280;68459;50.836;19.138;2023-09-08T11:40:24;99316.34;;;28.04;45.65
74975;BME280;68459;50.836;19.138;2023-09-08T11:43:29;99316.84;;;28.06;45.61
74975;BME280;68459;50.836;19.138;2023-09-08T11:46:35;99316.03;;;28.14;45.41
74975;BME280;68459;50.836;19.138;2023-09-08T11:49:40;99311.69;;;28.39;45.28
74975;BME280;68459;50.836;19.138;2023-09-08T11:52:45;99305.47;;;28.68;44.85
74975;BME280;68459;50.836;19.138;2023-09-08T11:55:49;99303.38;;;28.91;44.59
74975;BME280;68459;50.836;19.138;2023-09-08T11:58:55;99299.59;;;29.13;43.95
74975;BME280;68459;50.836;19.138;2023-09-08T12:02:00;99304.78;;;29.23;43.47
74975;BME280;68459;50.836;19.138;2023-09-08T12:05:04;99297.75;;;29.25;43.12
74975;BME280;68459;50.836;19.138;2023-09-08T12:08:08;99297.88;;;29.46;42.94
74975;BME280;68459;50.836;19.138;2023-09-08T12:11:12;99289.75;;;29.70;42.62
74975;BME280;68459;50.836;19.138;2023-09-08T12:14:17;99285.22;;;29.95;42.54
74975;BME280;68459;50.836;19.138;2023-09-08T12:17:21;99302.22;;;30.23;42.09
74975;BME280;68459;50.836;19.138;2023-09-08T12:20:27;99293.69;;;30.28;41.88
74975;BME280;68459;50.836;19.138;2023-09-08T12:23:31;99289.63;;;30.46;41.58
74975;BME280;68459;50.836;19.138;2023-09-08T12:26:36;99294.44;;;30.79;40.65
74975;BME280;68459;50.836;19.138;2023-09-08T12:29:41;99287.59;;;31.42;38.99
74975;BME280;68459;50.836;19.138;2023-09-08T12:32:46;99293.41;;;33.62;36.78
74975;BME280;68459;50.836;19.138;2023-09-08T12:35:51;99292.59;;;36.98;33.01
74975;BME280;68459;50.836;19.138;2023-09-08T12:38:55;99309.63;;;39.99;29.84
74975;BME280;68459;50.836;19.138;2023-09-08T12:41:59;99303.97;;;42.32;26.82
74975;BME280;68459;50.836;19.138;2023-09-08T12:45:05;99300.38;;;44.27;25.04
74975;BME280;68459;50.836;19.138;2023-09-08T12:48:10;99308.47;;;45.80;22.72
74975;BME280;68459;50.836;19.138;2023-09-08T12:51:13;99302.03;;;46.95;22.04
74975;BME280;68459;50.836;19.138;2023-09-08T12:54:18;99307.69;;;47.88;21.39
74975;BME280;68459;50.836;19.138;2023-09-08T12:57:21;99305.81;;;49.28;20.32
74975;BME280;68459;50.836;19.138;2023-09-08T13:00:26;99292.81;;;49.94;19.08
74975;BME280;68459;50.836;19.138;2023-09-08T13:03:31;99297.31;;;50.50;18.99
74975;BME280;68459;50.836;19.138;2023-09-08T13:06:34;99288.72;;;51.29;17.96
74975;BME280;68459;50.836;19.138;2023-09-08T13:09:38;99300.25;;;51.62;17.54
74975;BME280;68459;50.836;19.138;2023-09-08T13:12:42;99288.56;;;51.89;17.35
74975;BME280;68459;50.836;19.138;2023-09-08T13:15:47;99288.38;;;52.17;16.52
74975;BME280;68459;50.836;19.138;2023-09-08T13:18:52;99288.78;;;52.63;16.11
74975;BME280;68459;50.836;19.138;2023-09-08T13:21:57;99284.03;;;52.60;16.10
74975;BME280;68459;50.836;19.138;2023-09-08T13:25:00;99285.44;;;52.79;15.24
74975;BME280;68459;50.836;19.138;2023-09-08T13:28:04;99284.84;;;52.90;15.06
74975;BME280;68459;50.836;19.138;2023-09-08T13:31:10;99284.72;;;53.28;14.15
74975;BME280;68459;50.836;19.138;2023-09-08T13:34:14;99275.53;;;53.45;14.61
74975;BME280;68459;50.836;19.138;2023-09-08T13:37:17;99270.63;;;53.65;13.96
74975;BME280;68459;50.836;19.138;2023-09-08T13:40:21;99268.06;;;53.53;13.70
74975;BME280;68459;50.836;19.138;2023-09-08T13:43:25;99265.63;;;53.31;14.47
74975;BME280;68459;50.836;19.138;2023-09-08T13:46:31;99257.19;;;53.62;13.38
74975;BME280;68459;50.836;19.138;2023-09-08T13:49:35;99253.94;;;53.75;13.63
74975;BME280;68459;50.836;19.138;2023-09-08T13:52:39;99241.56;;;53.89;13.11
74975;BME280;68459;50.836;19.138;2023-09-08T13:55:45;99245.53;;;53.92;12.88
74975;BME280;68459;50.836;19.138;2023-09-08T13:58:52;99238.88;;;53.65;13.24
74975;BME280;68459;50.836;19.138;2023-09-08T14:02:00;99239.97;;;53.53;13.24
74975;BME280;68459;50.836;19.138;2023-09-08T14:05:25;99239.59;;;53.25;12.89
74975;BME280;68459;50.836;19.138;2023-09-08T14:08:37;99238.22;;;52.91;13.41
74975;BME280;68459;50.836;19.138;2023-09-08T14:12:00;99228.06;;;52.66;13.57
74975;BME280;68459;50.836;19.138;2023-09-08T14:15:08;99223.50;;;52.75;13.85
74975;BME280;68459;50.836;19.138;2023-09-08T14:18:13;99221.59;;;52.42;14.08
74975;BME280;68459;50.836;19.138;2023-09-08T14:21:17;99216.13;;;52.29;13.77
74975;BME280;68459;50.836;19.138;2023-09-08T14:24:21;99217.47;;;52.05;14.02
74975;BME280;68459;50.836;19.138;2023-09-08T14:27:25;99206.50;;;51.70;14.10
74975;BME280;68459;50.836;19.138;2023-09-08T14:30:28;99199.09;;;51.21;14.31
74975;BME280;68459;50.836;19.138;2023-09-08T14:33:33;99192.84;;;50.99;13.86
74975;BME280;68459;50.836;19.138;2023-09-08T14:36:37;99194.72;;;51.02;13.92
74975;BME280;68459;50.836;19.138;2023-09-08T14:39:41;99186.78;;;50.97;14.32
74975;BME280;68459;50.836;19.138;2023-09-08T14:42:44;99197.59;;;51.02;14.21
74975;BME280;68459;50.836;19.138;2023-09-08T14:45:48;99190.97;;;50.78;14.07
74975;BME280;68459;50.836;19.138;2023-09-08T14:48:53;99183.06;;;50.36;14.07
74975;BME280;68459;50.836;19.138;2023-09-08T14:51:58;99179.41;;;50.08;14.34
74975;BME280;68459;50.836;19.138;2023-09-08T14:55:02;99175.75;;;50.08;14.50
74975;BME280;68459;50.836;19.138;2023-09-08T14:58:06;99173.50;;;49.84;14.89
74975;BME280;68459;50.836;19.138;2023-09-08T15:01:09;99168.25;;;49.65;15.11
74975;BME280;68459;50.836;19.138;2023-09-08T15:04:17;99166.16;;;49.56;14.75
74975;BME280;68459;50.836;19.138;2023-09-08T15:07:21;99162.03;;;48.99;15.47
74975;BME280;68459;50.836;19.138;2023-09-08T15:10:25;99159.50;;;48.70;15.16
74975;BME280;68459;50.836;19.138;2023-09-08T15:13:29;99159.16;;;48.68;15.22
74975;BME280;68459;50.836;19.138;2023-09-08T15:16:33;99160.94;;;48.21;15.48
74975;BME280;68459;50.836;19.138;2023-09-08T15:19:38;99153.50;;;47.55;16.17
74975;BME280;68459;50.836;19.138;2023-09-08T15:22:42;99153.00;;;47.22;16.38
74975;BME280;68459;50.836;19.138;2023-09-08T15:25:53;99148.91;;;47.10;15.53
74975;BME280;68459;50.836;19.138;2023-09-08T15:28:58;99147.44;;;46.80;15.98
74975;BME280;68459;50.836;19.138;2023-09-08T15:32:02;99151.38;;;46.32;16.62
74975;BME280;68459;50.836;19.138;2023-09-08T15:35:09;99145.69;;;45.87;16.68
74975;BME280;68459;50.836;19.138;2023-09-08T15:38:14;99145.16;;;45.15;17.03
74975;BME280;68459;50.836;19.138;2023-09-08T15:41:17;99138.31;;;44.60;17.32
74975;BME280;68459;50.836;19.138;2023-09-08T15:44:22;99135.69;;;43.90;18.14
74975;BME280;68459;50.836;19.138;2023-09-08T15:47:26;99126.91;;;43.38;18.91
74975;BME280;68459;50.836;19.138;2023-09-08T15:50:31;99131.25;;;42.95;19.18
74975;BME280;68459;50.836;19.138;2023-09-08T15:53:35;99122.59;;;42.49;19.62
74975;BME280;68459;50.836;19.138;2023-09-08T15:56:39;99113.91;;;42.02;19.57
74975;BME280;68459;50.836;19.138;2023-09-08T15:59:45;99123.63;;;41.63;20.25
74975;BME280;68459;50.836;19.138;2023-09-08T16:02:49;99121.28;;;41.14;20.74
74975;BME280;68459;50.836;19.138;2023-09-08T16:05:54;99112.34;;;40.53;20.72
74975;BME280;68459;50.836;19.138;2023-09-08T16:08:58;99111.00;;;39.95;21.58